createdAt,value
2023-04-19T00:02:02.464Z,100240.72
2023-04-19T00:04:30.259Z,100235.53
2023-04-19T00:06:58.496Z,100237.28
2023-04-19T00:09:25.213Z,100241.59
2023-04-19T00:11:52.416Z,100247.63
2023-04-19T00:14:18.974Z,100244.16
2023-04-19T00:16:45.698Z,100244.13
2023-04-19T00:19:12.362Z,100241.47
2023-04-19T00:21:39.023Z,100244.88
2023-04-19T00:24:05.815Z,100250.94
2023-04-19T00:26:32.359Z,100253.53
2023-04-19T00:28:58.896Z,100254.38
2023-04-19T00:31:25.650Z,100255.22
2023-04-19T00:33:52.252Z,100250.00
2023-04-19T00:36:18.808Z,100257.75
2023-04-19T00:38:45.500Z,100259.47
2023-04-19T00:41:12.065Z,100254.28
2023-04-19T00:43:38.694Z,100267.22
2023-04-19T00:46:05.758Z,100265.47
2023-04-19T00:48:32.451Z,100271.53
2023-04-19T00:50:59.315Z,100263.78
2023-04-19T00:53:25.861Z,100262.03
2023-04-19T00:55:52.700Z,100268.09
2023-04-19T00:58:19.391Z,100268.09
2023-04-19T01:00:46.077Z,100262.91
2023-04-19T01:03:13.683Z,100269.84
2023-04-19T01:05:40.612Z,100275.03
2023-04-19T01:08:08.423Z,100276.75
2023-04-19T01:10:35.058Z,100274.13
2023-04-19T01:13:01.622Z,100274.13
2023-04-19T01:15:28.190Z,100276.69
2023-04-19T01:17:56.050Z,100278.41
2023-04-19T01:20:22.792Z,100280.13
2023-04-19T01:22:49.290Z,100280.97
2023-04-19T01:25:16.073Z,100277.50
2023-04-19T01:27:42.908Z,100279.22
2023-04-19T01:30:09.734Z,100280.94
2023-04-19T01:32:36.342Z,100288.69
2023-04-19T01:35:02.981Z,100285.22
2023-04-19T01:37:29.662Z,100292.13
2023-04-19T01:39:56.243Z,100292.97
2023-04-19T01:42:23.030Z,100296.41
2023-04-19T01:44:49.651Z,100302.44
2023-04-19T01:47:16.218Z,100294.63
2023-04-19T01:49:42.786Z,100294.59
2023-04-19T01:52:09.342Z,100293.72
2023-04-19T01:54:35.860Z,100288.50
2023-04-19T01:57:02.695Z,100285.91
2023-04-19T01:59:29.269Z,100285.03
2023-04-19T02:01:56.096Z,100290.19
2023-04-19T02:04:22.754Z,100290.16
2023-04-19T02:06:49.418Z,100294.47
2023-04-19T02:09:16.214Z,100284.94
2023-04-19T02:11:42.846Z,100291.88
2023-04-19T02:14:09.409Z,100293.59
2023-04-19T02:16:36.494Z,100289.25
2023-04-19T02:19:03.327Z,100306.50
2023-04-19T02:21:29.892Z,100291.78
2023-04-19T02:23:56.494Z,100306.44
2023-04-19T02:26:24.569Z,100300.38
2023-04-19T02:28:52.251Z,100311.53
2023-04-19T02:31:19.053Z,100318.41
2023-04-19T02:33:46.878Z,100325.28
2023-04-19T02:36:13.456Z,100327.88
2023-04-19T02:38:40.001Z,100322.66
2023-04-19T02:41:06.563Z,100328.66
2023-04-19T02:43:33.080Z,100332.13
2023-04-19T02:45:59.729Z,100321.75
2023-04-19T02:48:26.884Z,100325.19
2023-04-19T02:50:53.464Z,100332.09
2023-04-19T02:53:20.039Z,100335.53
2023-04-19T02:55:46.607Z,100332.94
2023-04-19T02:58:13.720Z,100341.63
2023-04-19T03:00:40.522Z,100336.44
2023-04-19T03:03:07.687Z,100336.50
2023-04-19T03:05:37.240Z,100340.00
2023-04-19T03:08:03.868Z,100334.81
2023-04-19T03:10:30.467Z,100336.53
2023-04-19T03:12:57.040Z,100339.97
2023-04-19T03:15:23.578Z,100345.13
2023-04-19T03:17:50.438Z,100345.09
2023-04-19T03:20:17.198Z,100352.84
2023-04-19T03:22:43.810Z,100349.34
2023-04-19T03:25:12.761Z,100355.41
2023-04-19T03:27:39.460Z,100351.13
2023-04-19T03:30:06.618Z,100350.28
2023-04-19T03:32:33.342Z,100348.59
2023-04-19T03:34:59.924Z,100360.66
2023-04-19T03:37:26.464Z,100353.78
2023-04-19T03:39:53.106Z,100357.25
2023-04-19T03:42:19.681Z,100359.03
2023-04-19T03:44:46.241Z,100353.88
2023-04-19T03:47:12.830Z,100359.09
2023-04-19T03:49:39.397Z,100362.56
2023-04-19T03:52:05.984Z,100362.56
2023-04-19T03:54:32.623Z,100357.41
2023-04-19T03:56:59.554Z,100362.59
2023-04-19T03:59:26.268Z,100366.09
2023-04-19T04:01:52.934Z,100359.22
2023-04-19T04:04:19.718Z,100360.97
2023-04-19T04:06:46.560Z,100367.03
2023-04-19T04:09:13.091Z,100365.31
2023-04-19T04:11:39.640Z,100366.19
2023-04-19T04:14:06.867Z,100366.22
2023-04-19T04:16:33.491Z,100364.59
2023-04-19T04:19:00.214Z,100369.00
2023-04-19T04:21:27.370Z,100366.47
2023-04-19T04:23:54.015Z,100363.94
2023-04-19T04:26:45.546Z,100370.88
2023-04-19T04:29:12.553Z,100387.38
2023-04-19T04:31:39.270Z,100379.63
2023-04-19T04:34:06.489Z,100384.81
2023-04-19T04:36:33.100Z,100379.66
2023-04-19T04:39:02.006Z,100384.03
2023-04-19T04:41:31.395Z,100371.06
2023-04-19T04:44:11.436Z,100381.47
2023-04-19T04:46:39.366Z,100378.88
2023-04-19T04:49:06.586Z,100384.06
2023-04-19T04:51:33.261Z,100386.66
2023-04-19T04:53:59.916Z,100378.94
2023-04-19T04:56:27.110Z,100386.78
2023-04-19T04:58:53.799Z,100379.03
2023-04-19T05:01:21.612Z,100386.03
2023-04-19T05:03:48.276Z,100386.06
2023-04-19T05:06:14.870Z,100387.81
2023-04-19T05:08:41.591Z,100386.13
2023-04-19T05:11:08.918Z,100383.50
2023-04-19T05:13:35.777Z,100388.69
2023-04-19T05:16:02.413Z,100389.59
2023-04-19T05:18:29.031Z,100385.28
2023-04-19T05:20:56.821Z,100393.97
2023-04-19T05:23:23.349Z,100400.06
2023-04-19T05:25:49.963Z,100391.41
2023-04-19T05:28:16.551Z,100392.28
2023-04-19T05:30:43.137Z,100400.97
2023-04-19T05:33:09.812Z,100393.16
2023-04-19T05:35:36.570Z,100390.59
2023-04-19T05:38:03.499Z,100400.16
2023-04-19T05:40:30.431Z,100392.34
2023-04-19T05:42:57.016Z,100389.75
2023-04-19T05:45:23.788Z,100403.59
2023-04-19T05:47:50.472Z,100405.38
2023-04-19T05:50:18.474Z,100403.63
2023-04-19T05:52:45.053Z,100405.38
2023-04-19T05:55:11.626Z,100398.44
2023-04-19T05:57:38.206Z,100391.50
2023-04-19T06:00:05.215Z,100395.00
2023-04-19T06:02:32.428Z,100388.06
2023-04-19T06:05:02.499Z,100388.03
2023-04-19T06:07:34.200Z,100384.59
2023-04-19T06:10:04.587Z,100384.59
2023-04-19T06:12:31.175Z,100382.84
2023-04-19T06:14:57.713Z,100377.63
2023-04-19T06:17:25.648Z,100351.59
2023-04-19T06:19:52.662Z,100362.00
2023-04-19T06:22:19.363Z,100356.78
2023-04-19T06:24:46.169Z,100332.47
2023-04-19T06:27:12.740Z,100341.19
2023-04-19T06:29:39.441Z,100344.59
2023-04-19T06:32:06.173Z,100346.34
2023-04-19T06:34:32.758Z,100341.97
2023-04-19T06:36:59.274Z,100308.06
2023-04-19T06:39:25.962Z,100308.06
2023-04-19T06:41:52.651Z,100312.38
2023-04-19T06:44:19.650Z,100279.38
2023-04-19T06:46:46.345Z,100292.31
2023-04-19T06:49:12.849Z,100281.88
2023-04-19T06:51:39.536Z,100283.59
2023-04-19T06:54:06.378Z,100296.59
2023-04-19T06:56:39.841Z,100281.75
2023-04-19T06:59:06.458Z,100259.16
2023-04-19T07:01:33.315Z,100271.25
2023-04-19T07:04:00.067Z,100261.66
2023-04-19T07:06:27.073Z,100268.56
2023-04-19T07:08:53.729Z,100278.09
2023-04-19T07:11:21.931Z,100246.81
2023-04-19T07:13:49.165Z,100263.25
2023-04-19T07:16:15.873Z,100253.69
2023-04-19T07:18:42.529Z,100244.16
2023-04-19T07:21:09.170Z,100244.09
2023-04-19T07:23:36.060Z,100243.16
2023-04-19T07:26:02.702Z,100248.28
2023-04-19T07:28:29.608Z,100242.09
2023-04-19T07:30:56.208Z,100238.50
2023-04-19T07:33:28.171Z,100221.00
2023-04-19T07:35:55.033Z,100187.06
2023-04-19T07:38:21.699Z,100204.53
2023-04-19T07:40:48.241Z,100170.63
2023-04-19T07:43:15.038Z,100174.06
2023-04-19T07:45:41.848Z,100183.63
2023-04-19T07:48:08.426Z,100194.03
2023-04-19T07:50:35.162Z,100200.06
2023-04-19T07:53:01.826Z,100162.56
2023-04-19T07:55:28.451Z,100171.16
2023-04-19T07:57:54.963Z,100174.66
2023-04-19T08:00:21.844Z,100134.72
2023-04-19T08:02:49.269Z,100150.25
2023-04-19T08:05:20.051Z,100161.47
2023-04-19T08:07:46.889Z,100168.34
2023-04-19T08:10:13.581Z,100163.00
2023-04-19T08:12:47.779Z,100159.44
2023-04-19T08:16:03.682Z,100155.84
2023-04-19T08:18:10.463Z,100156.66
2023-04-19T08:20:37.098Z,100157.34
2023-04-19T08:23:14.403Z,100154.53
2023-04-19T08:25:48.150Z,100155.19
2023-04-19T08:28:14.743Z,100142.88
2023-04-19T08:30:41.415Z,100148.06
2023-04-19T08:33:08.481Z,100141.94
2023-04-19T08:35:36.241Z,100120.13
2023-04-19T08:38:04.563Z,100093.88
2023-04-19T08:40:31.651Z,100083.31
2023-04-19T08:42:58.406Z,100095.44
2023-04-19T08:45:28.869Z,100049.22
2023-04-19T08:48:01.197Z,100065.84
2023-04-19T08:53:08.415Z,100019.31
2023-04-19T08:56:03.536Z,99999.03
2023-04-19T09:01:06.724Z,99963.25
2023-04-19T09:03:38.547Z,99989.34
2023-04-19T09:06:12.336Z,99999.75
2023-04-19T09:08:39.919Z,99993.59
2023-04-19T09:11:06.937Z,99942.13
2023-04-19T09:13:34.170Z,99980.25
2023-04-19T09:16:00.933Z,99978.28
2023-04-19T09:18:30.398Z,99918.94
2023-04-19T09:20:58.213Z,99940.75
2023-04-19T09:23:25.683Z,99929.47
2023-04-19T09:28:31.855Z,99925.38
2023-04-19T09:31:10.725Z,99933.78
2023-04-19T09:33:44.717Z,99923.91
2023-04-19T09:36:13.102Z,99907.03
2023-04-19T09:38:48.655Z,99917.22
2023-04-19T09:41:15.300Z,99901.97
2023-04-19T09:46:30.310Z,99881.31
2023-04-19T09:49:30.268Z,99875.97
2023-04-19T09:52:07.914Z,99832.13
2023-04-19T09:54:34.592Z,99869.69
2023-04-19T09:57:01.781Z,99864.25
2023-04-19T09:59:28.472Z,99842.25
2023-04-19T10:01:56.450Z,99848.94
2023-04-19T10:04:33.460Z,99860.72
2023-04-19T10:07:28.570Z,99829.81
2023-04-19T10:09:57.999Z,99837.16
2023-04-19T10:14:57.497Z,99809.81
2023-04-19T10:17:24.722Z,99799.56
2023-04-19T10:19:59.656Z,99785.06
2023-04-19T10:22:26.442Z,99760.34
2023-04-19T10:25:09.964Z,99727.78
2023-04-19T10:27:36.547Z,99617.53
2023-04-19T10:30:07.587Z,99648.53
2023-04-19T10:32:39.204Z,99583.31
2023-04-19T10:35:24.804Z,99567.66
2023-04-19T10:38:14.187Z,99538.94
2023-04-19T10:41:03.723Z,99512.94
2023-04-19T10:43:31.138Z,99498.19
2023-04-19T10:46:01.755Z,99463.69
2023-04-19T10:48:33.405Z,99418.78
2023-04-19T10:51:00.163Z,99372.91
2023-04-19T10:53:45.857Z,99330.25
2023-04-19T10:56:12.735Z,99151.34
2023-04-19T10:58:57.909Z,99228.44
2023-04-19T11:01:43.578Z,99253.03
2023-04-19T11:04:11.601Z,99221.16
2023-04-19T11:06:50.638Z,99191.66
2023-04-19T11:09:27.423Z,99170.47
2023-04-19T11:11:54.643Z,99136.78
2023-04-19T11:14:21.672Z,99143.16
2023-04-19T11:16:48.242Z,99016.16
2023-04-19T11:19:18.558Z,99044.72
2023-04-19T11:21:45.993Z,99042.34
2023-04-19T11:24:12.856Z,99013.50
2023-04-19T11:26:39.542Z,98997.56
2023-04-19T11:29:08.936Z,98972.31
2023-04-19T11:31:36.269Z,98929.44
2023-04-19T11:34:03.411Z,98915.53
2023-04-19T11:36:31.924Z,98874.63
2023-04-19T11:38:58.495Z,98796.47
2023-04-19T11:41:25.340Z,98851.03
2023-04-19T11:43:52.045Z,98853.00
2023-04-19T11:46:18.800Z,98839.22
2023-04-19T11:48:54.592Z,98840.13
2023-04-19T11:51:21.797Z,98821.25
2023-04-19T11:53:48.402Z,98754.69
2023-04-19T11:56:16.363Z,98698.28
2023-04-19T11:58:45.157Z,98745.13
2023-04-19T12:01:13.278Z,98747.94
2023-04-19T12:03:43.286Z,98706.53
2023-04-19T12:06:17.357Z,98693.13
2023-04-19T12:08:43.969Z,98681.34
2023-04-19T12:11:10.629Z,98649.78
2023-04-19T12:13:40.853Z,98623.16
2023-04-19T12:16:07.874Z,98660.94
2023-04-19T12:18:48.421Z,98631.88
2023-04-19T12:21:25.702Z,98582.19
2023-04-19T12:23:56.501Z,98605.31
2023-04-19T12:26:23.273Z,98562.63
2023-04-19T12:28:49.933Z,98561.88
2023-04-19T12:31:16.672Z,98530.53
2023-04-19T12:33:43.248Z,98546.78
2023-04-19T12:36:09.884Z,98539.13
2023-04-19T12:38:37.657Z,98529.00
2023-04-19T12:41:04.320Z,98507.63
2023-04-19T12:43:31.945Z,98495.50
2023-04-19T12:45:59.069Z,98463.47
2023-04-19T12:48:26.138Z,98420.78
2023-04-19T12:50:53.024Z,98456.91
2023-04-19T12:53:19.715Z,98431.38
2023-04-19T12:55:49.850Z,98439.75
2023-04-19T12:58:17.506Z,98431.19
2023-04-19T13:00:44.642Z,98434.06
2023-04-19T13:03:12.663Z,98450.09
2023-04-19T13:05:39.354Z,98462.94
2023-04-19T13:08:06.156Z,98480.75
2023-04-19T13:10:32.705Z,98505.06
2023-04-19T13:13:00.755Z,98528.13
2023-04-19T13:15:28.651Z,98539.81
2023-04-19T13:17:55.847Z,98534.22
2023-04-19T13:20:22.521Z,98548.69
2023-04-19T13:22:49.202Z,98566.25
2023-04-19T13:25:15.800Z,98570.72
2023-04-19T13:27:42.406Z,98589.59
2023-04-19T13:30:09.241Z,98609.06
2023-04-19T13:32:35.969Z,98600.34
2023-04-19T13:35:02.544Z,98600.28
2023-04-19T13:37:29.811Z,98588.63
2023-04-19T13:40:07.016Z,98575.72
2023-04-19T13:42:41.771Z,98567.19
2023-04-19T13:45:09.472Z,98552.56
2023-04-19T13:47:36.131Z,98544.16
2023-04-19T13:50:02.722Z,98543.69
2023-04-19T13:52:30.010Z,98524.63
2023-04-19T13:54:56.625Z,98531.44
2023-04-19T13:57:23.191Z,98538.38
2023-04-19T13:59:49.735Z,98566.72
2023-04-19T14:02:16.447Z,98562.41
2023-04-19T14:04:43.126Z,98556.06
2023-04-19T14:07:09.983Z,98560.66
2023-04-19T14:09:37.105Z,98540.59
2023-04-19T14:12:04.518Z,98531.69
2023-04-19T14:14:32.479Z,98536.94
2023-04-19T14:16:59.164Z,98524.97
2023-04-19T14:19:26.311Z,98529.69
2023-04-19T14:21:52.964Z,98538.03
2023-04-19T14:24:19.595Z,98547.97
2023-04-19T14:26:48.682Z,98555.31
2023-04-19T14:29:21.148Z,98565.91
2023-04-19T14:31:47.832Z,98576.06
2023-04-19T14:34:14.466Z,98583.00
2023-04-19T14:36:41.051Z,98584.22
2023-04-19T14:39:08.471Z,98594.06
2023-04-19T14:41:35.050Z,98596.19
2023-04-19T14:44:01.640Z,98610.59
2023-04-19T14:46:28.372Z,98621.41
2023-04-19T14:48:55.002Z,98624.94
2023-04-19T14:51:21.525Z,98627.97
2023-04-19T14:53:48.037Z,98645.31
2023-04-19T14:56:14.632Z,98643.97
2023-04-19T14:58:41.153Z,98655.66
2023-04-19T15:01:11.552Z,98663.63
2023-04-19T15:03:38.328Z,98674.41
2023-04-19T15:06:05.362Z,98680.94
2023-04-19T15:08:31.967Z,98690.63
2023-04-19T15:10:58.515Z,98688.66
2023-04-19T15:13:25.163Z,98700.06
2023-04-19T15:15:51.930Z,98708.28
2023-04-19T15:18:18.546Z,98715.81
2023-04-19T15:20:45.158Z,98726.00
2023-04-19T15:23:11.748Z,98733.28
2023-04-19T15:25:38.365Z,98744.47
2023-04-19T15:28:04.906Z,98746.03
2023-04-19T15:30:31.510Z,98758.97
2023-04-19T15:32:58.145Z,98762.63
2023-04-19T15:35:24.713Z,98779.59
2023-04-19T15:37:51.413Z,98788.47
2023-04-19T15:40:18.045Z,98796.00
2023-04-19T15:42:45.254Z,98800.00
2023-04-19T15:45:11.874Z,98812.31
2023-04-19T15:47:38.520Z,98817.00
2023-04-19T15:50:06.693Z,98814.22
2023-04-19T15:52:33.305Z,98825.31
2023-04-19T15:54:59.904Z,98830.19
2023-04-19T15:57:26.540Z,98839.97
2023-04-19T15:59:53.109Z,98843.81
2023-04-19T16:02:19.943Z,98850.50
2023-04-19T16:04:48.385Z,98854.41
2023-04-19T16:07:15.143Z,98855.75
2023-04-19T16:09:41.726Z,98870.22
2023-04-19T16:12:08.310Z,98870.78
2023-04-19T16:14:34.979Z,98869.78
2023-04-19T16:17:01.536Z,98876.53
2023-04-19T16:19:28.181Z,98886.38
2023-04-19T16:21:54.777Z,98888.41
2023-04-19T16:24:21.328Z,98886.97
2023-04-19T16:26:48.109Z,98896.72
2023-04-19T16:29:14.883Z,98902.09
2023-04-19T16:31:41.696Z,98900.72
2023-04-19T16:34:08.530Z,98914.31
2023-04-19T16:36:36.420Z,98912.97
2023-04-19T16:39:02.997Z,98928.84
2023-04-19T16:41:29.933Z,98922.16
2023-04-19T16:43:56.569Z,98928.50
2023-04-19T16:46:23.182Z,98928.75
2023-04-19T16:48:49.889Z,98940.31
2023-04-19T16:51:16.432Z,98942.41
2023-04-19T16:53:45.415Z,98951.41
2023-04-19T16:56:12.228Z,98960.38
2023-04-19T16:58:38.846Z,98956.19
2023-04-19T17:01:05.652Z,98960.84
2023-04-19T17:03:32.385Z,98972.47
2023-04-19T17:05:59.054Z,98975.41
2023-04-19T17:08:26.430Z,98974.72
2023-04-19T17:10:52.989Z,98977.44
2023-04-19T17:13:19.652Z,98979.47
2023-04-19T17:15:46.598Z,98983.09
2023-04-19T17:18:13.282Z,98988.56
2023-04-19T17:20:40.105Z,98994.00
2023-04-19T17:23:06.788Z,98995.13
2023-04-19T17:25:33.389Z,98996.16
2023-04-19T17:28:00.021Z,98996.28
2023-04-19T17:30:26.662Z,99002.59
2023-04-19T17:32:53.374Z,99010.66
2023-04-19T17:35:20.149Z,99010.84
2023-04-19T17:37:46.769Z,99011.91
2023-04-19T17:40:13.344Z,99018.19
2023-04-19T17:42:39.904Z,99020.94
2023-04-19T17:45:10.988Z,99017.56
2023-04-19T17:47:38.275Z,99025.59
2023-04-19T17:50:09.146Z,99029.16
2023-04-19T17:52:35.747Z,99024.88
2023-04-19T17:55:04.397Z,99039.78
2023-04-19T17:57:32.072Z,99033.03
2023-04-19T17:59:59.259Z,99034.06
2023-04-19T18:02:26.100Z,99038.53
2023-04-19T18:04:53.190Z,99043.88
2023-04-19T18:07:19.852Z,99049.25
2023-04-19T18:09:46.497Z,99059.78
2023-04-19T18:12:13.037Z,99059.03
2023-04-19T18:14:39.709Z,99057.38
2023-04-19T18:17:06.538Z,99064.47
2023-04-19T18:19:33.185Z,99062.03
2023-04-19T18:22:01.323Z,99065.66
2023-04-19T18:24:28.306Z,99077.88
2023-04-19T18:26:54.924Z,99077.97
2023-04-19T18:29:23.179Z,99074.56
2023-04-19T18:31:49.828Z,99077.25
2023-04-19T18:34:16.551Z,99079.09
2023-04-19T18:36:43.168Z,99079.25
2023-04-19T18:39:10.522Z,99080.19
2023-04-19T18:41:37.054Z,99084.63
2023-04-19T18:46:33.284Z,99087.31
2023-04-19T18:49:00.016Z,99093.53
2023-04-19T18:51:28.070Z,99101.50
2023-04-19T18:53:54.689Z,99096.44
2023-04-19T18:56:21.552Z,99099.22
2023-04-19T18:58:49.102Z,99100.25
2023-04-19T19:01:15.847Z,99105.53
2023-04-19T19:06:13.101Z,99111.94
2023-04-19T19:08:40.214Z,99120.78
2023-04-19T19:11:29.114Z,99117.41
2023-04-19T19:13:53.537Z,99109.69
2023-04-19T19:16:20.593Z,99117.63
2023-04-19T19:18:47.183Z,99118.63
2023-04-19T19:21:13.766Z,99118.72
2023-04-19T19:23:42.637Z,99120.47
2023-04-19T19:26:11.204Z,99125.78
2023-04-19T19:28:37.831Z,99129.34
2023-04-19T19:31:04.476Z,99124.22
2023-04-19T19:33:32.369Z,99137.31
2023-04-19T19:35:59.499Z,99133.09
2023-04-19T19:38:26.207Z,99132.28
2023-04-19T19:41:30.994Z,99131.50
2023-04-19T19:43:39.947Z,99137.72
2023-04-19T19:46:06.834Z,99143.00
2023-04-19T19:48:39.169Z,99137.00
2023-04-19T19:51:36.290Z,99146.63
2023-04-19T19:53:56.403Z,99144.94
2023-04-19T19:56:24.480Z,99143.25
2023-04-19T19:58:52.130Z,99142.41
2023-04-19T20:01:21.848Z,99145.97
2023-04-19T20:03:48.999Z,99141.66
2023-04-19T20:08:47.239Z,99140.91
2023-04-19T20:11:13.979Z,99154.78
2023-04-19T20:13:40.662Z,99151.38
2023-04-19T20:16:07.556Z,99154.88
2023-04-19T20:18:35.047Z,99154.00
2023-04-19T20:21:01.660Z,99155.78
2023-04-19T20:23:28.204Z,99149.78
2023-04-19T20:25:54.738Z,99151.56
2023-04-19T20:28:21.310Z,99152.50
2023-04-19T20:30:48.068Z,99160.34
2023-04-19T20:33:14.658Z,99158.66
2023-04-19T20:35:42.158Z,99160.44
2023-04-19T20:38:09.747Z,99152.69
2023-04-19T20:40:36.381Z,99157.00
2023-04-19T20:43:03.411Z,99155.25
2023-04-19T20:45:30.032Z,99157.03
2023-04-19T20:47:58.570Z,99160.59
2023-04-19T20:50:25.615Z,99161.50
2023-04-19T20:52:52.220Z,99162.38
2023-04-19T20:55:18.978Z,99154.66
2023-04-19T20:57:46.846Z,99162.53
2023-04-19T21:00:16.686Z,99165.19
2023-04-19T21:02:44.379Z,99167.84
2023-04-19T21:05:11.458Z,99166.19
2023-04-19T21:07:38.163Z,99167.97
2023-04-19T21:10:05.745Z,99173.19
2023-04-19T21:12:33.427Z,99174.97
2023-04-19T21:15:00.167Z,99169.78
2023-04-19T21:17:26.901Z,99177.53
2023-04-19T21:19:53.553Z,99174.88
2023-04-19T21:22:20.280Z,99169.75
2023-04-19T21:24:46.904Z,99183.66
2023-04-19T21:27:13.477Z,99178.59
2023-04-19T21:29:40.028Z,99180.41
2023-04-19T21:32:06.704Z,99185.75
2023-04-19T21:34:34.177Z,99178.03
2023-04-19T21:37:00.812Z,99184.22
2023-04-19T21:39:27.461Z,99186.06
2023-04-19T21:41:54.062Z,99187.88
2023-04-19T21:44:20.638Z,99188.84
2023-04-19T21:46:47.303Z,99198.50
2023-04-19T21:49:13.919Z,99201.16
2023-04-19T21:51:41.149Z,99206.50
2023-04-19T21:54:07.748Z,99213.53
2023-04-19T21:56:34.311Z,99218.03
2023-04-19T21:59:00.927Z,99213.81
2023-04-19T22:01:27.733Z,99226.91
2023-04-19T22:03:54.606Z,99221.75
2023-04-19T22:06:21.935Z,99232.19
2023-04-19T22:08:49.781Z,99239.22
2023-04-19T22:11:20.768Z,99242.78
2023-04-19T22:13:47.291Z,99254.06
2023-04-19T22:16:15.038Z,99254.16
2023-04-19T22:18:41.645Z,99253.34
2023-04-19T22:21:14.036Z,99264.63
2023-04-19T22:23:40.835Z,99274.19
2023-04-19T22:26:07.779Z,99284.66
2023-04-19T22:28:35.999Z,99281.25
2023-04-19T22:31:02.589Z,99284.75
2023-04-19T22:33:29.179Z,99300.34
2023-04-19T22:35:55.726Z,99294.34
2023-04-19T22:38:22.285Z,99295.25
2023-04-19T22:40:48.854Z,99287.50
2023-04-19T22:43:15.977Z,99289.28
2023-04-19T22:45:44.678Z,99270.31
2023-04-19T22:48:12.497Z,99269.53
2023-04-19T22:50:39.048Z,99266.13
2023-04-19T22:53:05.676Z,99269.66
2023-04-19T22:55:32.322Z,99279.19
2023-04-19T22:57:58.872Z,99277.53
2023-04-19T23:00:26.544Z,99283.63
2023-04-19T23:02:53.267Z,99281.84
2023-04-19T23:05:20.152Z,99280.75
2023-04-19T23:07:46.712Z,99284.81
2023-04-19T23:10:13.454Z,99294.13
2023-04-19T23:12:40.108Z,99303.50
2023-04-19T23:15:07.339Z,99301.66
2023-04-19T23:17:34.658Z,99297.25
2023-04-19T23:20:01.339Z,99298.00
2023-04-19T23:22:27.951Z,99300.59
2023-04-19T23:24:54.503Z,99291.16
2023-04-19T23:27:21.132Z,99289.50
2023-04-19T23:29:47.748Z,99289.53
2023-04-19T23:32:14.268Z,99292.09
2023-04-19T23:34:41.496Z,99297.28
2023-04-19T23:37:08.898Z,99294.75
2023-04-19T23:39:35.427Z,99296.56
2023-04-19T23:42:02.254Z,99296.50
2023-04-19T23:44:29.279Z,99314.59
2023-04-19T23:46:56.114Z,99311.94
2023-04-19T23:49:22.707Z,99313.69
2023-04-19T23:51:50.406Z,99309.31
2023-04-19T23:54:22.264Z,99316.22
2023-04-19T23:56:49.532Z,99311.88
2023-04-19T23:59:16.267Z,99313.63
